createdAt,value
2022-09-05T00:02:03.572Z,4.37
2022-09-05T00:05:02.942Z,4.10
2022-09-05T00:07:59.163Z,4.77
2022-09-05T00:10:37.451Z,4.00
2022-09-05T00:13:34.621Z,4.23
2022-09-05T00:16:30.266Z,4.20
2022-09-05T00:24:23.408Z,4.20
2022-09-05T00:24:34.404Z,4.10
2022-09-05T00:25:30.711Z,4.63
2022-09-05T00:28:26.241Z,4.40
2022-09-05T00:31:53.454Z,4.43
2022-09-05T00:34:16.222Z,4.67
2022-09-05T00:36:50.293Z,4.50
2022-09-05T00:39:29.787Z,3.60
2022-09-05T00:42:01.350Z,4.27
2022-09-05T00:44:32.819Z,4.23
2022-09-05T00:47:23.343Z,4.13
2022-09-05T00:50:00.235Z,4.40
2022-09-05T00:53:06.376Z,4.10
2022-09-05T00:55:39.808Z,3.80
2022-09-05T00:58:34.025Z,4.63
2022-09-05T01:01:21.108Z,3.30
2022-09-05T01:04:06.191Z,3.57
2022-09-05T01:06:57.232Z,3.70
2022-09-05T01:09:50.070Z,3.90
2022-09-05T01:12:25.767Z,4.03
2022-09-05T01:15:16.192Z,3.17
2022-09-05T01:17:54.915Z,3.43
2022-09-05T01:20:49.836Z,3.13
2022-09-05T01:23:31.845Z,3.27
2022-09-05T01:26:10.833Z,3.10
2022-09-05T01:29:17.872Z,3.23
2022-09-05T01:32:21.262Z,3.33
2022-09-05T01:34:56.911Z,3.70
2022-09-05T01:37:44.418Z,3.97
2022-09-05T01:40:19.689Z,3.50
2022-09-05T01:43:17.816Z,4.17
2022-09-05T01:45:55.284Z,3.50
2022-09-05T01:48:27.423Z,3.33
2022-09-05T01:51:28.909Z,3.50
2022-09-05T01:54:24.269Z,3.53
2022-09-05T01:57:04.016Z,3.13
2022-09-05T01:59:59.272Z,3.30
2022-09-05T02:02:35.170Z,3.20
2022-09-05T02:05:20.744Z,3.27
2022-09-05T02:08:20.036Z,3.33
2022-09-05T02:10:56.146Z,3.20
2022-09-05T02:13:35.177Z,2.80
2022-09-05T02:16:13.273Z,3.47
2022-09-05T02:19:07.332Z,3.70
2022-09-05T02:21:36.701Z,3.47
2022-09-05T02:24:22.734Z,3.80
2022-09-05T02:27:06.067Z,3.10
2022-09-05T02:29:38.942Z,3.40
2022-09-05T02:32:21.152Z,3.33
2022-09-05T02:34:48.010Z,3.20
2022-09-05T02:38:56.730Z,3.37
2022-09-05T02:45:12.504Z,3.40
2022-09-05T02:45:19.716Z,3.30
2022-09-05T02:47:22.534Z,3.53
2022-09-05T02:53:25.099Z,3.50
2022-09-05T02:57:35.920Z,3.10
2022-09-05T02:57:36.859Z,3.70
2022-09-05T02:59:40.425Z,3.50
2022-09-05T03:02:25.545Z,3.33
2022-09-05T03:05:45.683Z,3.20
2022-09-05T03:08:24.572Z,3.07
2022-09-05T03:11:27.074Z,3.37
2022-09-05T03:14:18.880Z,3.27
2022-09-05T03:17:04.352Z,3.33
2022-09-05T03:20:04.792Z,3.53
2022-09-05T03:22:57.600Z,3.80
2022-09-05T03:25:50.157Z,2.80
2022-09-05T03:28:41.523Z,3.57
2022-09-05T03:31:30.108Z,3.47
2022-09-05T03:34:15.088Z,3.30
2022-09-05T03:36:41.979Z,3.40
2022-09-05T03:39:30.314Z,3.30
2022-09-05T03:42:19.018Z,2.90
2022-09-05T03:44:49.552Z,2.80
2022-09-05T03:47:42.271Z,2.80
2022-09-05T03:57:06.563Z,2.70
2022-09-05T03:57:17.966Z,2.63
2022-09-05T03:57:26.846Z,3.13
2022-09-05T03:59:47.596Z,2.83
2022-09-05T04:06:56.902Z,2.87
2022-09-05T04:08:28.341Z,3.23
2022-09-05T04:08:41.014Z,2.70
2022-09-05T04:11:12.784Z,2.83
2022-09-05T04:14:00.210Z,2.50
2022-09-05T04:16:46.746Z,2.53
2022-09-05T04:19:21.355Z,2.60
2022-09-05T04:22:18.332Z,2.50
2022-09-05T04:25:00.466Z,2.67
2022-09-05T04:27:46.484Z,2.50
2022-09-05T04:30:38.307Z,2.97
2022-09-05T04:33:10.106Z,2.60
2022-09-05T04:36:10.839Z,2.60
2022-09-05T04:38:45.600Z,2.63
2022-09-05T04:41:14.173Z,2.53
2022-09-05T04:43:50.936Z,2.20
2022-09-05T04:46:25.234Z,2.30
2022-09-05T04:49:10.905Z,2.40
2022-09-05T04:52:00.940Z,2.13
2022-09-05T04:54:40.096Z,2.37
2022-09-05T04:57:16.267Z,2.43
2022-09-05T05:00:01.212Z,2.40
2022-09-05T05:06:08.646Z,2.77
2022-09-05T05:06:09.426Z,2.43
2022-09-05T05:08:43.006Z,2.30
2022-09-05T05:16:00.344Z,2.67
2022-09-05T05:17:55.063Z,2.30
2022-09-05T05:18:14.998Z,2.50
2022-09-05T05:20:42.018Z,2.93
2022-09-05T05:23:18.102Z,2.50
2022-09-05T05:25:55.747Z,2.60
2022-09-05T05:28:27.328Z,2.23
2022-09-05T05:31:01.274Z,2.50
2022-09-05T05:33:35.070Z,2.10
2022-09-05T05:36:06.871Z,2.40
2022-09-05T05:38:53.744Z,2.70
2022-09-05T05:41:29.600Z,2.10
2022-09-05T05:43:57.691Z,2.40
2022-09-05T05:46:35.365Z,3.03
2022-09-05T05:49:15.851Z,2.50
2022-09-05T05:52:01.656Z,2.70
2022-09-05T05:54:42.631Z,2.37
2022-09-05T05:57:23.139Z,2.00
2022-09-05T06:00:05.418Z,2.57
2022-09-05T06:03:24.771Z,2.70
2022-09-05T06:06:14.414Z,2.13
2022-09-05T06:11:27.879Z,2.33
2022-09-05T06:14:55.457Z,2.63
2022-09-05T06:15:22.077Z,2.30
2022-09-05T06:18:11.215Z,2.23
2022-09-05T06:22:09.279Z,2.30
2022-09-05T06:23:57.526Z,2.30
2022-09-05T06:26:52.576Z,2.40
2022-09-05T06:29:38.656Z,1.93
2022-09-05T06:32:24.438Z,2.33
2022-09-05T06:35:04.379Z,2.80
2022-09-05T06:37:32.223Z,2.90
2022-09-05T06:40:18.057Z,2.40
2022-09-05T06:43:23.884Z,2.37
2022-09-05T06:46:10.527Z,2.60
2022-09-05T06:49:31.312Z,2.10
2022-09-05T06:51:44.796Z,2.50
2022-09-05T06:54:32.226Z,2.70
2022-09-05T06:57:04.525Z,2.37
2022-09-05T06:59:37.447Z,2.33
2022-09-05T07:02:58.260Z,2.30
2022-09-05T07:05:44.578Z,2.30
2022-09-05T07:08:37.304Z,2.27
2022-09-05T07:11:21.415Z,2.20
2022-09-05T07:13:55.371Z,2.23
2022-09-05T07:16:37.992Z,2.40
2022-09-05T07:19:27.097Z,2.77
2022-09-05T07:22:29.458Z,2.10
2022-09-05T07:25:08.849Z,2.67
2022-09-05T07:28:26.191Z,2.50
2022-09-05T07:30:40.340Z,2.30
2022-09-05T07:33:08.583Z,2.40
2022-09-05T07:35:41.830Z,2.50
2022-09-05T07:38:14.019Z,2.43
2022-09-05T07:41:16.279Z,2.40
2022-09-05T07:43:46.839Z,2.53
2022-09-05T07:46:18.177Z,2.50
2022-09-05T07:48:50.323Z,4.43
2022-09-05T07:56:56.435Z,3.93
2022-09-05T07:57:15.884Z,3.00
2022-09-05T07:57:31.173Z,3.27
2022-09-05T08:00:25.977Z,3.50
2022-09-05T08:02:55.285Z,2.80
2022-09-05T08:05:34.365Z,2.90
2022-09-05T08:08:08.735Z,2.93
2022-09-05T08:11:23.492Z,2.77
2022-09-05T08:13:46.634Z,2.60
2022-09-05T08:16:23.436Z,2.40
2022-09-05T08:19:03.190Z,2.40
2022-09-05T08:21:44.015Z,2.27
2022-09-05T08:24:13.127Z,2.70
2022-09-05T08:26:48.487Z,2.33
2022-09-05T08:29:34.021Z,2.27
2022-09-05T08:32:36.712Z,2.70
2022-09-05T08:35:38.626Z,4.67
2022-09-05T08:38:07.406Z,2.77
2022-09-05T08:40:41.781Z,2.80
2022-09-05T08:46:37.151Z,2.60
2022-09-05T08:46:49.141Z,2.33
2022-09-05T08:49:36.397Z,2.45
2022-09-05T08:52:05.559Z,2.75
2022-09-05T08:54:35.945Z,2.33
2022-09-05T08:57:41.054Z,2.67
2022-09-05T09:00:20.221Z,2.80
2022-09-05T09:03:06.109Z,2.88
2022-09-05T09:06:14.507Z,3.05
2022-09-05T09:09:10.724Z,2.65
2022-09-05T09:12:09.025Z,2.95
2022-09-05T09:14:54.239Z,2.78
2022-09-05T09:17:28.448Z,2.53
2022-09-05T09:20:33.650Z,3.83
2022-09-05T09:23:32.181Z,2.72
2022-09-05T09:26:17.400Z,2.70
2022-09-05T09:29:19.993Z,2.97
2022-09-05T09:32:02.935Z,3.45
2022-09-05T09:34:45.716Z,3.83
2022-09-05T09:37:35.616Z,3.97
2022-09-05T09:40:34.935Z,3.22
2022-09-05T09:43:10.680Z,3.38
2022-09-05T09:45:58.662Z,3.55
2022-09-05T09:48:40.660Z,3.10
2022-09-05T09:51:26.961Z,3.33
2022-09-05T09:54:22.455Z,2.40
2022-09-05T09:57:26.995Z,4.30
2022-09-05T10:00:10.136Z,3.20
2022-09-05T10:07:47.917Z,2.50
2022-09-05T10:10:44.733Z,2.30
2022-09-05T10:10:50.601Z,2.72
2022-09-05T10:15:30.711Z,2.40
2022-09-05T10:18:24.148Z,2.40
2022-09-05T10:21:25.486Z,2.20
2022-09-05T10:24:01.185Z,2.63
2022-09-05T10:27:01.960Z,2.58
2022-09-05T10:29:42.783Z,2.70
2022-09-05T10:35:08.325Z,2.95
2022-09-05T10:35:35.695Z,3.05
2022-09-05T10:38:12.578Z,2.50
2022-09-05T10:41:13.210Z,2.88
2022-09-05T10:43:34.709Z,2.35
2022-09-05T10:46:47.020Z,2.47
2022-09-05T10:49:13.827Z,2.90
2022-09-05T10:51:56.252Z,3.55
2022-09-05T10:54:31.167Z,5.70
2022-09-05T10:57:16.712Z,4.47
2022-09-05T11:02:21.956Z,3.60
2022-09-05T11:02:46.509Z,2.92
2022-09-05T11:05:18.175Z,2.78
2022-09-05T11:07:45.054Z,4.90
2022-09-05T11:10:33.739Z,2.75
2022-09-05T11:13:11.383Z,5.03
2022-09-05T11:15:47.884Z,3.08
2022-09-05T11:18:56.251Z,2.85
2022-09-05T11:21:42.795Z,2.65
2022-09-05T11:24:27.443Z,2.55
2022-09-05T11:27:23.347Z,2.58
2022-09-05T11:29:59.512Z,2.80
2022-09-05T11:36:57.890Z,2.97
2022-09-05T11:40:00.000Z,3.67
2022-09-05T11:40:05.889Z,3.38
2022-09-05T11:41:50.502Z,4.55
2022-09-05T11:44:39.055Z,3.38
2022-09-05T11:47:28.167Z,4.55
2022-09-05T11:50:00.256Z,4.05
2022-09-05T11:53:05.730Z,3.53
2022-09-05T11:55:50.232Z,3.33
2022-09-05T11:58:44.825Z,2.92
2022-09-05T12:01:50.690Z,5.00
2022-09-05T12:05:50.307Z,4.40
2022-09-05T12:08:11.608Z,3.72
2022-09-05T12:11:09.960Z,4.25
2022-09-05T12:14:25.465Z,3.95
2022-09-05T12:16:55.512Z,4.72
2022-09-05T12:19:54.805Z,4.45
2022-09-05T12:22:29.618Z,4.03
2022-09-05T12:25:26.264Z,3.67
2022-09-05T12:29:27.901Z,4.13
2022-09-05T12:33:21.983Z,4.57
2022-09-05T12:36:10.173Z,4.55
2022-09-05T12:40:44.684Z,5.35
2022-09-05T12:41:27.291Z,5.25
2022-09-05T12:43:39.314Z,5.18
2022-09-05T12:48:50.271Z,4.78
2022-09-05T12:51:46.199Z,5.53
2022-09-05T12:54:33.697Z,4.68
2022-09-05T13:01:17.458Z,4.28
2022-09-05T13:03:05.715Z,4.00
2022-09-05T13:03:27.041Z,4.15
2022-09-05T13:06:24.832Z,5.32
2022-09-05T13:09:07.300Z,4.90
2022-09-05T13:14:58.211Z,5.07
2022-09-05T13:15:05.992Z,4.80
2022-09-05T13:17:43.077Z,4.00
2022-09-05T13:20:25.932Z,4.40
2022-09-05T13:22:53.831Z,4.43
2022-09-05T13:25:27.227Z,4.30
2022-09-05T13:28:01.701Z,3.83
2022-09-05T13:37:55.196Z,4.60
2022-09-05T13:38:01.204Z,4.40
2022-09-05T13:38:07.905Z,4.30
2022-09-05T13:39:28.171Z,4.18
2022-09-05T13:42:01.603Z,4.68
2022-09-05T13:44:30.332Z,3.58
2022-09-05T13:47:09.061Z,3.67
2022-09-05T13:50:05.168Z,4.53
2022-09-05T13:52:39.455Z,3.72
2022-09-05T13:55:24.540Z,4.10
2022-09-05T13:58:07.389Z,3.92
2022-09-05T14:00:35.535Z,3.20
2022-09-05T14:03:40.315Z,4.22
2022-09-05T14:06:45.061Z,4.07
2022-09-05T14:09:38.548Z,4.03
2022-09-05T14:12:12.342Z,3.78
2022-09-05T14:17:53.231Z,3.80
2022-09-05T14:20:42.996Z,3.35
2022-09-05T14:23:15.943Z,3.60
2022-09-05T14:25:50.236Z,3.90
2022-09-05T14:28:31.666Z,3.03
2022-09-05T14:36:23.542Z,3.40
2022-09-05T14:37:54.703Z,3.75
2022-09-05T14:38:09.732Z,3.83
2022-09-05T14:41:02.823Z,3.05
2022-09-05T14:44:08.022Z,4.60
2022-09-05T14:46:49.734Z,3.45
2022-09-05T14:49:29.753Z,3.60
2022-09-05T14:51:58.426Z,3.50
2022-09-05T15:02:09.654Z,3.67
2022-09-05T15:02:48.938Z,3.50
2022-09-05T15:03:05.264Z,3.42
2022-09-05T15:05:41.751Z,4.03
2022-09-05T15:08:24.081Z,4.70
2022-09-05T15:12:16.180Z,3.70
2022-09-05T15:14:11.228Z,3.60
2022-09-05T15:16:43.815Z,3.90
2022-09-05T15:19:11.637Z,3.20
2022-09-05T15:21:41.433Z,3.40
2022-09-05T15:24:24.930Z,3.20
2022-09-05T15:26:56.459Z,3.63
2022-09-05T15:29:24.809Z,3.80
2022-09-05T15:32:07.592Z,4.00
2022-09-05T15:34:38.750Z,4.50
2022-09-05T15:37:23.415Z,3.50
2022-09-05T15:40:22.076Z,4.20
2022-09-05T15:42:51.523Z,4.45
2022-09-05T15:45:35.486Z,3.70
2022-09-05T15:48:14.783Z,3.30
2022-09-05T15:50:50.312Z,3.55
2022-09-05T15:53:34.324Z,4.07
2022-09-05T15:56:18.208Z,3.42
2022-09-05T15:58:54.833Z,3.85
2022-09-05T16:01:35.729Z,4.15
2022-09-05T16:09:16.606Z,3.97
2022-09-05T16:10:41.146Z,3.83
2022-09-05T16:10:50.281Z,3.33
2022-09-05T16:12:48.416Z,4.07
2022-09-05T16:18:58.608Z,4.55
2022-09-05T16:23:15.454Z,5.90
2022-09-05T16:23:19.494Z,4.85
2022-09-05T16:24:58.318Z,6.07
2022-09-05T16:27:46.933Z,5.07
2022-09-05T16:30:29.471Z,5.10
2022-09-05T16:33:21.028Z,4.93
2022-09-05T16:36:29.784Z,4.70
2022-09-05T16:39:01.851Z,5.07
2022-09-05T16:42:09.528Z,5.37
2022-09-05T16:44:45.189Z,5.83
2022-09-05T16:47:50.159Z,5.50
2022-09-05T16:50:24.179Z,5.53
2022-09-05T16:52:54.195Z,5.23
2022-09-05T16:55:37.680Z,5.17
2022-09-05T16:58:14.629Z,4.70
2022-09-05T17:01:21.085Z,4.90
2022-09-05T17:03:54.168Z,4.50
2022-09-05T17:06:45.849Z,5.00
2022-09-05T17:09:40.888Z,4.80
2022-09-05T17:12:23.663Z,4.67
2022-09-05T17:14:57.598Z,4.70
2022-09-05T17:18:19.027Z,4.10
2022-09-05T17:20:21.687Z,4.60
2022-09-05T17:28:05.184Z,5.80
2022-09-05T17:29:25.253Z,2.60
2022-09-05T17:29:38.060Z,4.43
2022-09-05T17:31:55.122Z,4.70
2022-09-05T17:34:52.683Z,4.07
2022-09-05T17:37:37.701Z,4.17
2022-09-05T17:40:38.560Z,4.43
2022-09-05T17:43:08.916Z,4.60
2022-09-05T17:46:00.907Z,5.10
2022-09-05T17:48:46.390Z,4.50
2022-09-05T17:51:27.311Z,4.00
2022-09-05T17:54:21.854Z,4.27
2022-09-05T17:56:49.934Z,3.33
2022-09-05T17:59:19.945Z,4.23
2022-09-05T18:02:22.308Z,3.70
2022-09-05T18:04:54.522Z,3.63
2022-09-05T18:07:30.071Z,3.83
2022-09-05T18:10:14.536Z,3.57
2022-09-05T18:15:35.150Z,3.40
2022-09-05T18:18:05.983Z,4.57
2022-09-05T18:21:21.125Z,3.97
2022-09-05T18:24:03.806Z,4.37
2022-09-05T18:26:40.075Z,3.87
2022-09-05T18:29:57.570Z,3.40
2022-09-05T18:32:40.637Z,4.23
2022-09-05T18:35:37.839Z,3.57
2022-09-05T18:38:50.012Z,3.20
2022-09-05T18:41:24.713Z,2.90
2022-09-05T18:44:13.267Z,3.20
2022-09-05T18:46:53.067Z,2.50
2022-09-05T18:50:22.312Z,3.37
2022-09-05T18:52:41.987Z,2.50
2022-09-05T18:56:14.215Z,2.80
2022-09-05T18:58:26.664Z,2.43
2022-09-05T19:00:55.377Z,2.50
2022-09-05T19:03:31.107Z,3.60
2022-09-05T19:06:36.413Z,3.67
2022-09-05T19:08:57.490Z,4.13
2022-09-05T19:11:33.470Z,3.27
2022-09-05T19:14:28.760Z,4.07
2022-09-05T19:17:27.409Z,3.97
2022-09-05T19:20:30.580Z,3.73
2022-09-05T19:23:11.209Z,3.70
2022-09-05T19:25:40.914Z,3.90
2022-09-05T19:31:49.186Z,5.17
2022-09-05T19:36:53.901Z,5.57
2022-09-05T19:37:12.159Z,5.43
2022-09-05T19:37:37.329Z,5.17
2022-09-05T19:44:46.198Z,5.60
2022-09-05T19:47:28.118Z,5.10
2022-09-05T19:47:39.125Z,4.07
2022-09-05T19:50:55.156Z,3.70
2022-09-05T19:53:22.371Z,2.87
2022-09-05T19:55:49.997Z,3.10
2022-09-05T19:58:22.328Z,3.30
2022-09-05T20:01:05.049Z,3.00
2022-09-05T20:03:38.556Z,2.70
2022-09-05T20:06:24.730Z,2.60
2022-09-05T20:09:18.389Z,2.60
2022-09-05T20:11:49.832Z,2.90
2022-09-05T20:14:30.575Z,2.50
2022-09-05T20:17:01.464Z,2.77
2022-09-05T20:19:35.179Z,2.50
2022-09-05T20:22:40.370Z,2.47
2022-09-05T20:24:55.351Z,2.80
2022-09-05T20:27:28.200Z,2.70
2022-09-05T20:29:59.947Z,2.43
2022-09-05T20:32:50.534Z,2.60
2022-09-05T20:40:04.000Z,2.37
2022-09-05T20:43:21.003Z,2.67
2022-09-05T20:43:31.790Z,2.50
2022-09-05T20:44:21.044Z,3.10
2022-09-05T20:54:06.346Z,2.47
2022-09-05T20:54:13.409Z,2.80
2022-09-05T20:54:18.231Z,2.67
2022-09-05T20:55:45.482Z,2.30
2022-09-05T20:58:20.860Z,2.47
2022-09-05T21:01:20.864Z,2.20
2022-09-05T21:04:02.045Z,2.50
2022-09-05T21:06:36.881Z,2.30
2022-09-05T21:09:26.063Z,2.60
2022-09-05T21:11:56.174Z,2.20
2022-09-05T21:14:26.707Z,1.87
2022-09-05T21:17:16.052Z,1.90
2022-09-05T21:19:53.479Z,2.20
2022-09-05T21:22:21.113Z,2.13
2022-09-05T21:24:48.751Z,2.00
2022-09-05T21:27:24.217Z,2.13
2022-09-05T21:29:58.841Z,2.03
2022-09-05T21:32:36.145Z,1.93
2022-09-05T21:35:15.433Z,2.27
2022-09-05T21:37:56.644Z,2.07
2022-09-05T21:40:24.120Z,1.83
2022-09-05T21:47:38.255Z,1.70
2022-09-05T21:47:41.523Z,1.60
2022-09-05T21:48:28.492Z,1.43
2022-09-05T21:50:59.520Z,1.47
2022-09-05T21:59:13.418Z,1.40
2022-09-05T21:59:28.803Z,1.90
2022-09-05T21:59:46.667Z,1.80
2022-09-05T22:02:14.927Z,1.70
2022-09-05T22:04:42.147Z,1.70
2022-09-05T22:07:26.374Z,1.80
2022-09-05T22:09:59.962Z,2.00
2022-09-05T22:12:31.318Z,2.20
2022-09-05T22:15:11.485Z,2.23
2022-09-05T22:17:47.293Z,2.03
2022-09-05T22:20:17.690Z,1.90
2022-09-05T22:22:45.317Z,2.13
2022-09-05T22:25:35.893Z,2.07
2022-09-05T22:28:18.936Z,2.50
2022-09-05T22:30:45.908Z,2.60
2022-09-05T22:33:13.124Z,2.43
2022-09-05T22:35:40.965Z,2.43
2022-09-05T22:38:12.599Z,2.57
2022-09-05T22:40:42.690Z,2.63
2022-09-05T22:43:10.981Z,3.00
2022-09-05T22:45:39.265Z,3.13
2022-09-05T22:48:11.543Z,3.00
2022-09-05T22:50:39.886Z,2.80
2022-09-05T22:53:08.731Z,3.40
2022-09-05T22:55:41.159Z,3.10
2022-09-05T22:58:10.629Z,3.23
2022-09-05T23:00:37.777Z,3.03
2022-09-05T23:03:06.498Z,2.80
2022-09-05T23:05:33.936Z,2.83
2022-09-05T23:08:01.222Z,2.90
2022-09-05T23:10:29.104Z,2.77
2022-09-05T23:12:56.809Z,3.20
2022-09-05T23:15:24.313Z,3.30
2022-09-05T23:17:55.956Z,2.90
2022-09-05T23:20:24.200Z,3.40
2022-09-05T23:22:51.127Z,3.47
2022-09-05T23:25:18.308Z,3.10
2022-09-05T23:27:45.724Z,3.20
2022-09-05T23:30:13.076Z,3.23
2022-09-05T23:32:51.209Z,3.03
2022-09-05T23:35:19.359Z,2.70
2022-09-05T23:37:47.619Z,3.33
2022-09-05T23:40:17.885Z,3.03
2022-09-05T23:42:52.867Z,2.93
2022-09-05T23:45:20.024Z,2.87
2022-09-05T23:47:47.055Z,3.40
2022-09-05T23:50:15.443Z,3.03
2022-09-05T23:52:44.385Z,2.90
2022-09-05T23:55:16.005Z,3.37
2022-09-05T23:57:43.428Z,3.00
